Time;durP1;ratioP1;P1;durP2;ratioP2;P2;SDS_P1;SDS_P2;PMS_P1;PMS_P2;Temp;Humidity;BMP_temperature;BMP_pressure;BME280_temperature;BME280_humidity;BME280_pressure;Samples;Min_cycle;Max_cycle;Signal;HPM_P1;HPM_P2
2022/12/20 00:01:14;;;;;;;53.27;26.07;;;-1.10;86.30;;;;;;5033110;28;20442;-72
2022/12/20 00:03:41;;;;;;;53.90;26.67;;;-1.30;86.50;;;;;;5052635;28;20431;-72
2022/12/20 00:06:07;;;;;;;57.03;27.40;;;-1.20;86.70;;;;;;5050918;28;20437;-72
2022/12/20 00:08:36;;;;;;;60.60;28.47;;;-1.30;86.20;;;;;;5033053;28;20435;-72
2022/12/20 00:11:04;;;;;;;62.13;28.47;;;-1.30;86.30;;;;;;5043267;28;20192;-72
2022/12/20 00:13:30;;;;;;;58.23;28.00;;;-1.30;86.80;;;;;;5035692;28;20439;-72
2022/12/20 00:16:12;;;;;;;56.47;26.90;;;-1.20;86.70;;;;;;5036877;28;20444;-72
2022/12/20 00:18:39;;;;;;;51.90;26.57;;;-1.10;86.60;;;;;;5041781;28;20456;-72
2022/12/20 00:21:06;;;;;;;59.80;27.10;;;-1.10;86.40;;;;;;5022642;28;20442;-72
2022/12/20 00:23:33;;;;;;;58.73;27.00;;;-1.10;86.10;;;;;;5044134;28;20565;-72
2022/12/20 00:26:07;;;;;;;59.77;26.73;;;-1.20;86.10;;;;;;5032685;28;20426;-72
2022/12/20 00:28:34;;;;;;;53.83;27.23;;;-1.20;86.00;;;;;;5034037;28;20456;-72
2022/12/20 00:31:01;;;;;;;56.70;28.13;;;-1.10;86.00;;;;;;5052566;28;20426;-72
2022/12/20 00:33:26;;;;;;;52.90;25.07;;;-1.10;86.40;;;;;;5043342;28;20523;-72
2022/12/20 00:35:55;;;;;;;58.50;25.07;;;-1.10;86.30;;;;;;5024604;28;20525;-72
2022/12/20 00:38:21;;;;;;;59.93;28.10;;;-1.10;86.40;;;;;;5045484;28;20194;-72
2022/12/20 00:40:46;;;;;;;56.00;25.40;;;-1.10;86.00;;;;;;5036462;28;20430;-72
2022/12/20 00:43:12;;;;;;;59.10;25.57;;;-1.10;86.40;;;;;;5032243;28;20440;-72
2022/12/20 00:45:38;;;;;;;54.37;26.37;;;-1.10;85.70;;;;;;5016095;28;20326;-72
2022/12/20 00:48:04;;;;;;;51.17;25.83;;;-1.10;86.40;;;;;;5049756;28;20212;-72
2022/12/20 00:50:30;;;;;;;57.83;25.30;;;-1.10;86.30;;;;;;5032954;28;20192;-72
2022/12/20 00:52:56;;;;;;;54.27;25.90;;;-1.10;86.20;;;;;;5031011;28;20429;-72
2022/12/20 00:55:21;;;;;;;58.63;26.33;;;-1.10;86.40;;;;;;5024292;28;20192;-72
2022/12/20 00:57:47;;;;;;;49.47;26.93;;;-1.20;86.30;;;;;;5052731;28;20190;-72
2022/12/20 01:00:14;;;;;;;52.53;23.83;;;-1.30;86.00;;;;;;5033861;28;20211;-72
2022/12/20 01:02:40;;;;;;;53.53;25.83;;;-1.30;86.60;;;;;;5016859;28;20283;-72
2022/12/20 01:05:06;;;;;;;58.03;27.10;;;-1.30;86.00;;;;;;5032116;28;20516;-72
2022/12/20 01:07:32;;;;;;;56.40;26.60;;;-1.30;86.20;;;;;;5015214;28;20273;-72
2022/12/20 01:09:57;;;;;;;55.10;25.73;;;-1.20;86.80;;;;;;5034026;28;20187;-72
2022/12/20 01:12:23;;;;;;;56.73;25.80;;;-1.20;86.70;;;;;;5042373;28;20521;-72
2022/12/20 01:14:49;;;;;;;61.40;27.97;;;-1.20;86.70;;;;;;5069400;28;20223;-72
2022/12/20 01:17:15;;;;;;;54.93;27.00;;;-1.30;86.30;;;;;;5051214;28;20182;-72
2022/12/20 01:19:40;;;;;;;54.50;26.93;;;-1.10;86.30;;;;;;5036120;28;20466;-72
2022/12/20 01:22:06;;;;;;;46.57;23.33;;;-1.30;86.20;;;;;;5036174;28;20226;-72
2022/12/20 01:24:32;;;;;;;55.87;27.37;;;-1.30;86.50;;;;;;5035861;28;20322;-72
2022/12/20 01:26:57;;;;;;;44.90;23.30;;;-1.20;86.30;;;;;;5007071;28;20290;-72
2022/12/20 01:29:23;;;;;;;56.07;27.10;;;-1.20;86.50;;;;;;5052570;28;20194;-72
2022/12/20 01:31:49;;;;;;;52.13;25.77;;;-1.10;86.40;;;;;;5050937;28;20196;-72
2022/12/20 01:34:14;;;;;;;57.90;27.43;;;-1.20;85.90;;;;;;5021243;28;20189;-72
2022/12/20 01:36:41;;;;;;;56.23;25.13;;;-1.20;86.10;;;;;;5056769;28;20204;-72
2022/12/20 01:39:15;;;;;;;55.53;24.70;;;-1.20;86.30;;;;;;5022844;28;20297;-72
2022/12/20 01:41:42;;;;;;;50.63;25.10;;;-1.20;86.80;;;;;;5054502;28;20447;-72
2022/12/20 01:44:17;;;;;;;56.17;27.23;;;-1.20;86.80;;;;;;5023217;28;20438;-72
2022/12/20 01:46:43;;;;;;;52.33;25.13;;;-1.20;86.40;;;;;;5056226;28;20555;-72
2022/12/20 01:49:17;;;;;;;49.63;25.10;;;-1.10;86.80;;;;;;5053828;28;20443;-72
2022/12/20 01:51:48;;;;;;;51.13;24.97;;;-1.10;86.40;;;;;;5056235;28;20422;-72
2022/12/20 01:54:20;;;;;;;49.03;25.23;;;-1.10;85.60;;;;;;5052851;28;20435;-72
2022/12/20 01:56:50;;;;;;;54.33;26.13;;;-1.10;86.60;;;;;;5054683;28;20432;-72
2022/12/20 01:59:16;;;;;;;58.87;26.07;;;-1.10;86.10;;;;;;5055830;28;20462;-72
2022/12/20 02:01:43;;;;;;;55.70;26.63;;;-1.20;86.70;;;;;;5042129;28;20446;-72
2022/12/20 02:04:09;;;;;;;45.83;24.53;;;-1.20;86.70;;;;;;5052703;28;20537;-72
2022/12/20 02:06:35;;;;;;;52.70;24.40;;;-1.10;86.70;;;;;;5040921;28;20506;-72
2022/12/20 02:09:02;;;;;;;57.80;26.53;;;-1.20;85.80;;;;;;5038338;28;20198;-72
2022/12/20 02:11:40;;;;;;;55.00;26.40;;;-1.30;86.80;;;;;;5039606;28;20194;-72
2022/12/20 02:14:31;;;;;;;53.53;24.37;;;-1.20;86.90;;;;;;5052326;28;20440;-72
2022/12/20 02:17:14;;;;;;;56.87;24.83;;;-1.10;86.70;;;;;;5047982;28;20447;-72
2022/12/20 02:19:52;;;;;;;56.07;27.30;;;-1.10;86.50;;;;;;5042166;28;20485;-72
2022/12/20 02:22:36;;;;;;;51.53;24.07;;;-1.10;86.80;;;;;;5050653;28;20493;-72
2022/12/20 02:25:36;;;;;;;52.43;26.83;;;-1.10;86.80;;;;;;5044442;28;20463;-72
2022/12/20 02:28:04;;;;;;;57.53;26.17;;;-1.10;86.20;;;;;;5052000;28;20410;-72
2022/12/20 02:30:37;;;;;;;57.27;26.10;;;-1.20;86.40;;;;;;5055327;28;20537;-72
2022/12/20 02:33:07;;;;;;;57.20;25.47;;;-1.10;86.30;;;;;;5054616;28;20422;-72
2022/12/20 02:35:35;;;;;;;52.57;24.07;;;-1.10;86.30;;;;;;5055882;28;20442;-72
2022/12/20 02:38:22;;;;;;;50.23;24.97;;;-1.10;86.40;;;;;;5054440;28;20440;-72
2022/12/20 02:40:53;;;;;;;48.47;24.47;;;-1.10;86.30;;;;;;5060778;28;20424;-72
2022/12/20 02:46:06;;;;;;;55.40;26.17;;;-1.10;86.60;;;;;;5049088;28;20566;-72
2022/12/20 02:48:34;;;;;;;54.70;26.20;;;-1.10;85.80;;;;;;5028639;28;20527;-72
2022/12/20 02:51:02;;;;;;;50.43;26.77;;;-1.10;86.60;;;;;;5032166;28;20443;-72
2022/12/20 02:53:29;;;;;;;58.93;27.93;;;-1.10;86.50;;;;;;5049837;28;20450;-72
2022/12/20 02:56:16;;;;;;;48.47;26.97;;;-1.10;85.90;;;;;;5044498;28;20443;-72
2022/12/20 02:58:57;;;;;;;57.87;27.10;;;-1.20;86.00;;;;;;5040736;28;20254;-72
2022/12/20 03:01:29;;;;;;;57.87;27.47;;;-1.30;86.50;;;;;;5054552;28;20451;-72
2022/12/20 03:03:57;;;;;;;57.37;25.47;;;-1.20;86.50;;;;;;5051364;28;20420;-72
2022/12/20 03:06:23;;;;;;;47.13;23.37;;;-1.10;86.30;;;;;;5049107;28;20421;-72
2022/12/20 03:08:48;;;;;;;57.80;27.47;;;-1.10;86.50;;;;;;5054360;28;20506;-72
2022/12/20 03:11:14;;;;;;;53.47;25.57;;;-1.10;86.00;;;;;;5030453;28;20307;-72
2022/12/20 03:13:40;;;;;;;57.87;27.87;;;-1.10;86.50;;;;;;5037761;28;20203;-72
2022/12/20 03:16:06;;;;;;;59.17;28.00;;;-1.20;86.00;;;;;;5031929;28;20196;-72
2022/12/20 03:18:31;;;;;;;60.07;27.77;;;-1.10;86.60;;;;;;5020180;28;20252;-72
2022/12/20 03:20:57;;;;;;;66.37;27.60;;;-1.10;86.30;;;;;;5054376;28;20199;-72
2022/12/20 03:23:23;;;;;;;57.20;25.83;;;-1.10;86.20;;;;;;5037869;28;20194;-72
2022/12/20 03:25:48;;;;;;;58.93;26.60;;;-1.10;86.40;;;;;;5067821;28;20193;-72
2022/12/20 03:28:14;;;;;;;56.10;25.77;;;-1.10;86.10;;;;;;5020436;28;20181;-72
2022/12/20 03:30:40;;;;;;;58.70;25.80;;;-1.10;86.40;;;;;;5034313;28;20179;-72
2022/12/20 03:33:05;;;;;;;51.23;23.47;;;-1.10;86.30;;;;;;5037847;28;20187;-72
2022/12/20 03:35:31;;;;;;;51.30;23.67;;;-1.10;86.30;;;;;;5046120;28;20281;-72
2022/12/20 03:37:57;;;;;;;63.77;25.87;;;-1.00;86.20;;;;;;5047351;28;20192;-72
2022/12/20 03:40:22;;;;;;;64.30;26.57;;;-1.00;86.30;;;;;;5019510;28;20298;-72
2022/12/20 03:42:48;;;;;;;55.57;24.43;;;-1.00;85.90;;;;;;5037620;28;20313;-72
2022/12/20 03:45:14;;;;;;;62.40;28.80;;;-1.00;86.40;;;;;;5036540;28;20904;-72
2022/12/20 03:47:40;;;;;;;61.77;27.00;;;-1.10;86.10;;;;;;5035842;28;20192;-72
2022/12/20 03:50:06;;;;;;;60.13;27.77;;;-1.10;86.10;;;;;;5032483;28;20446;-72
2022/12/20 03:52:32;;;;;;;55.47;24.13;;;-1.00;86.30;;;;;;5053834;28;20190;-72
2022/12/20 03:54:58;;;;;;;63.77;28.07;;;-1.00;86.60;;;;;;5042464;28;20424;-72
2022/12/20 03:57:24;;;;;;;52.80;25.47;;;-1.00;86.40;;;;;;5035409;28;20440;-72
2022/12/20 03:59:50;;;;;;;56.03;26.23;;;-1.00;86.50;;;;;;5019690;28;20216;-72
2022/12/20 04:02:15;;;;;;;57.90;26.27;;;-1.00;86.30;;;;;;5037875;28;20190;-72
2022/12/20 04:04:41;;;;;;;63.40;27.17;;;-1.00;86.80;;;;;;5040583;28;20184;-72
2022/12/20 04:07:07;;;;;;;55.13;24.40;;;-1.00;86.80;;;;;;5034056;28;20256;-72
2022/12/20 04:09:33;;;;;;;55.17;24.37;;;-1.00;86.70;;;;;;5045965;28;20288;-74
2022/12/20 04:12:00;;;;;;;55.40;26.80;;;-1.00;86.40;;;;;;5033909;28;20520;-72
2022/12/20 04:14:26;;;;;;;62.53;26.60;;;-1.00;86.70;;;;;;5036618;28;20186;-73
2022/12/20 04:16:51;;;;;;;51.83;25.70;;;-1.10;86.70;;;;;;5050399;28;20449;-73
2022/12/20 04:19:17;;;;;;;55.83;24.67;;;-1.10;86.90;;;;;;5035765;28;20767;-73
2022/12/20 04:21:42;;;;;;;52.63;24.53;;;-1.00;86.80;;;;;;5029613;28;20281;-73
2022/12/20 04:24:09;;;;;;;55.73;26.10;;;-1.00;86.50;;;;;;5032959;28;20197;-72
2022/12/20 04:26:35;;;;;;;57.10;25.90;;;-1.00;86.70;;;;;;5020990;28;20266;-72
2022/12/20 04:29:00;;;;;;;55.57;26.37;;;-1.00;86.50;;;;;;5037759;28;20434;-72
2022/12/20 04:31:26;;;;;;;60.43;27.53;;;-1.10;86.20;;;;;;5053455;28;20190;-72
2022/12/20 04:33:52;;;;;;;56.63;28.07;;;-1.10;87.10;;;;;;5048837;28;20188;-72
2022/12/20 04:36:17;;;;;;;55.53;25.07;;;-1.10;86.70;;;;;;5019020;28;20192;-71
2022/12/20 04:38:43;;;;;;;62.07;25.47;;;-1.10;86.80;;;;;;5051346;28;20771;-71
2022/12/20 04:41:09;;;;;;;64.60;26.47;;;-1.10;87.10;;;;;;5052715;28;20192;-71
2022/12/20 04:43:35;;;;;;;54.07;27.53;;;-1.10;86.30;;;;;;5024930;28;20188;-71
2022/12/20 04:46:01;;;;;;;61.33;26.77;;;-1.10;86.80;;;;;;5023008;28;20477;-71
2022/12/20 04:48:27;;;;;;;57.73;25.03;;;-1.10;87.00;;;;;;5036255;28;20182;-71
2022/12/20 04:50:54;;;;;;;60.43;26.93;;;-1.10;86.80;;;;;;5048448;28;20201;-71
2022/12/20 04:56:07;;;;;;;62.30;26.70;;;-1.00;86.80;;;;;;5039257;28;20415;-71
2022/12/20 04:58:33;;;;;;;56.93;26.10;;;-1.00;86.90;;;;;;5045031;28;20440;-72
2022/12/20 05:00:58;;;;;;;57.63;27.53;;;-1.10;86.30;;;;;;5051670;28;20504;-73
2022/12/20 05:03:25;;;;;;;58.53;28.63;;;-1.00;86.80;;;;;;5012297;28;20451;-73
2022/12/20 05:05:51;;;;;;;56.57;25.73;;;-1.00;86.50;;;;;;5051152;28;20538;-72
2022/12/20 05:08:17;;;;;;;56.33;25.67;;;-1.00;87.00;;;;;;5052355;28;20427;-72
2022/12/20 05:10:43;;;;;;;75.00;29.73;;;-1.00;86.80;;;;;;5018279;28;20517;-72
2022/12/20 05:13:09;;;;;;;60.67;26.90;;;-1.10;86.10;;;;;;5020361;28;20757;-72
2022/12/20 05:15:35;;;;;;;53.67;25.23;;;-1.10;87.10;;;;;;5025316;28;20434;-72
2022/12/20 05:18:00;;;;;;;55.80;25.00;;;-1.10;87.00;;;;;;5016366;28;20197;-71
2022/12/20 05:20:27;;;;;;;56.47;25.57;;;-1.10;87.10;;;;;;5044546;28;20203;-71
2022/12/20 05:28:34;;;;;;;64.97;27.37;;;-1.10;87.40;;;;;;5045762;28;20434;-72
2022/12/20 05:31:00;;;;;;;56.13;27.23;;;-1.10;86.90;;;;;;5045687;28;20431;-73
2022/12/20 05:33:26;;;;;;;64.63;29.97;;;-1.10;87.40;;;;;;5035103;28;20509;-73
2022/12/20 05:35:52;;;;;;;62.13;25.53;;;-1.30;87.60;;;;;;5049028;28;20441;-70
2022/12/20 05:38:18;;;;;;;66.33;27.40;;;-1.10;87.90;;;;;;5024228;28;20430;-71
2022/12/20 05:40:45;;;;;;;62.40;26.97;;;-1.10;87.40;;;;;;5029759;28;20231;-71
2022/12/20 05:43:11;;;;;;;66.53;27.83;;;-1.00;87.00;;;;;;5022157;28;20179;-71
2022/12/20 05:45:37;;;;;;;59.00;26.73;;;-1.00;86.00;;;;;;5002618;28;20523;-71
2022/12/20 05:48:03;;;;;;;57.23;25.93;;;-1.00;86.60;;;;;;5009865;28;20183;-71
2022/12/20 05:50:28;;;;;;;59.83;25.60;;;-0.90;86.70;;;;;;5020141;28;20196;-71
2022/12/20 05:52:54;;;;;;;56.73;27.40;;;-0.90;86.60;;;;;;5041988;28;20207;-69
2022/12/20 05:55:20;;;;;;;53.30;25.93;;;-0.90;86.40;;;;;;5011821;28;20194;-71
2022/12/20 05:57:45;;;;;;;57.83;28.00;;;-0.80;86.50;;;;;;5011785;28;20258;-69
2022/12/20 06:00:12;;;;;;;58.50;26.77;;;-0.80;86.50;;;;;;5035239;28;20206;-73
2022/12/20 06:02:38;;;;;;;63.43;27.87;;;-0.80;86.30;;;;;;5031216;28;20187;-71
2022/12/20 06:05:04;;;;;;;53.20;25.70;;;-0.80;85.70;;;;;;5018753;28;20429;-72
2022/12/20 06:07:30;;;;;;;58.40;26.40;;;-0.80;85.70;;;;;;5027628;28;20190;-78
2022/12/20 06:09:56;;;;;;;59.60;28.00;;;-0.90;85.40;;;;;;5023220;28;20444;-70
2022/12/20 06:12:22;;;;;;;57.37;24.57;;;-0.90;86.10;;;;;;5055785;28;20416;-73
2022/12/20 06:14:48;;;;;;;64.67;28.20;;;-0.80;86.00;;;;;;5036578;28;20415;-73
2022/12/20 06:17:14;;;;;;;63.77;26.37;;;-0.80;85.20;;;;;;5027907;28;20478;-75
2022/12/20 06:19:42;;;;;;;58.20;25.90;;;-0.90;86.20;;;;;;5023549;28;20210;-75
2022/12/20 06:22:08;;;;;;;60.63;26.33;;;-0.90;85.90;;;;;;5021340;28;20188;-74
2022/12/20 06:24:35;;;;;;;59.60;27.03;;;-0.90;86.10;;;;;;5037361;28;20435;-75
2022/12/20 06:27:01;;;;;;;54.07;27.30;;;-0.80;85.90;;;;;;5036090;28;20483;-76
2022/12/20 06:29:28;;;;;;;64.57;28.13;;;-0.90;85.90;;;;;;5039184;28;20503;-76
2022/12/20 06:31:53;;;;;;;62.67;28.53;;;-0.90;86.60;;;;;;5045393;28;20430;-75
2022/12/20 06:34:20;;;;;;;61.70;27.03;;;-0.90;86.00;;;;;;5023649;28;20491;-75
2022/12/20 06:36:46;;;;;;;61.30;26.83;;;-1.00;86.00;;;;;;5023527;28;20281;-75
2022/12/20 06:39:12;;;;;;;64.83;27.17;;;-1.00;86.80;;;;;;5053111;28;20544;-75
2022/12/20 06:41:39;;;;;;;57.80;24.60;;;-0.90;86.30;;;;;;5035160;28;20443;-75
2022/12/20 06:44:05;;;;;;;54.53;26.97;;;-0.80;86.00;;;;;;5048524;28;20488;-76
2022/12/20 06:46:31;;;;;;;60.07;27.50;;;-0.70;86.00;;;;;;5037868;28;20479;-75
2022/12/20 06:48:56;;;;;;;59.13;25.97;;;-0.70;85.60;;;;;;5041265;28;20196;-75
2022/12/20 06:51:22;;;;;;;62.37;26.73;;;-0.70;85.80;;;;;;5035546;28;20194;-75
2022/12/20 06:53:48;;;;;;;63.33;28.83;;;-0.70;85.90;;;;;;5051454;28;20191;-79
2022/12/20 06:56:14;;;;;;;61.37;28.27;;;-0.70;85.50;;;;;;5036255;28;20195;-75
2022/12/20 06:58:39;;;;;;;65.77;27.90;;;-0.80;85.60;;;;;;5045187;28;20282;-74
2022/12/20 07:01:05;;;;;;;56.77;26.50;;;-0.80;85.10;;;;;;5017204;28;20179;-75
2022/12/20 07:03:31;;;;;;;59.03;26.47;;;-0.80;85.50;;;;;;5022163;28;20216;-74
2022/12/20 07:05:57;;;;;;;59.83;27.30;;;-0.80;86.00;;;;;;5055438;28;20216;-74
2022/12/20 07:08:23;;;;;;;61.83;26.60;;;-0.70;85.70;;;;;;5032408;28;20236;-73
2022/12/20 07:10:51;;;;;;;62.57;27.07;;;-0.70;85.70;;;;;;5019860;28;20187;-72
2022/12/20 07:13:17;;;;;;;64.90;27.23;;;-0.70;85.20;;;;;;5038670;28;20438;-75
2022/12/20 07:15:43;;;;;;;55.13;27.83;;;-0.80;86.20;;;;;;5053913;28;20437;-76
2022/12/20 07:18:09;;;;;;;59.93;26.90;;;-0.90;85.70;;;;;;5020204;28;20413;-73
2022/12/20 07:20:35;;;;;;;63.97;30.07;;;-0.90;86.10;;;;;;5052734;28;20211;-80
2022/12/20 07:23:01;;;;;;;64.00;25.73;;;-0.90;85.80;;;;;;5051148;28;20182;-74
2022/12/20 07:25:27;;;;;;;56.37;27.73;;;-0.80;86.20;;;;;;5033174;28;20435;-73
2022/12/20 07:27:52;;;;;;;61.33;26.90;;;-0.80;85.90;;;;;;5022902;28;20186;-75
2022/12/20 07:30:19;;;;;;;60.60;26.27;;;-0.80;85.80;;;;;;5043617;28;20437;-67
2022/12/20 07:32:45;;;;;;;57.33;27.03;;;-0.90;85.50;;;;;;5035244;28;20302;-69
2022/12/20 07:35:12;;;;;;;57.90;26.53;;;-0.90;85.10;;;;;;5041551;28;20445;-71
2022/12/20 07:37:38;;;;;;;55.03;24.47;;;-0.80;85.50;;;;;;5051774;28;20433;-68
2022/12/20 07:40:05;;;;;;;60.27;26.33;;;-0.70;85.50;;;;;;5016795;28;20484;-69
2022/12/20 07:42:30;;;;;;;69.23;29.60;;;-0.70;85.50;;;;;;5049757;28;20237;-68
2022/12/20 07:44:56;;;;;;;67.10;29.97;;;-0.80;85.50;;;;;;5035754;28;20530;-72
2022/12/20 07:47:22;;;;;;;59.53;27.53;;;-0.90;86.00;;;;;;5020046;28;20286;-67
2022/12/20 07:49:50;;;;;;;68.83;26.47;;;-0.80;85.90;;;;;;5027188;28;20200;-68
2022/12/20 07:52:20;;;;;;;54.73;25.40;;;-0.70;85.70;;;;;;5013455;28;20207;-68
2022/12/20 07:54:53;;;;;;;61.77;25.87;;;-0.70;86.20;;;;;;5049943;28;20430;-67
2022/12/20 07:57:26;;;;;;;58.33;26.93;;;-0.70;85.50;;;;;;5049777;28;20451;-68
2022/12/20 07:59:55;;;;;;;59.97;26.90;;;-0.90;85.60;;;;;;5042673;28;20490;-68
2022/12/20 08:02:37;;;;;;;54.60;25.80;;;-0.80;86.40;;;;;;5046121;28;20445;-67
2022/12/20 08:05:06;;;;;;;65.63;27.43;;;-0.70;86.10;;;;;;5051939;28;20422;-67
2022/12/20 08:07:33;;;;;;;64.27;26.63;;;-0.70;85.50;;;;;;5052275;28;20481;-67
2022/12/20 08:10:00;;;;;;;57.90;25.63;;;-0.70;85.90;;;;;;5031896;28;20450;-67
2022/12/20 08:12:28;;;;;;;63.87;26.30;;;-0.70;85.80;;;;;;5035210;28;20562;-67
2022/12/20 08:14:55;;;;;;;57.47;24.50;;;-0.70;85.30;;;;;;5032364;28;20537;-68
2022/12/20 08:17:21;;;;;;;62.93;26.17;;;-0.60;85.60;;;;;;5024577;28;20451;-73
2022/12/20 08:19:49;;;;;;;58.60;27.30;;;-0.60;85.30;;;;;;5034261;28;20482;-74
2022/12/20 08:22:15;;;;;;;58.17;26.40;;;-0.60;85.50;;;;;;5037105;28;20452;-74
2022/12/20 08:24:40;;;;;;;61.63;27.37;;;-0.60;84.60;;;;;;5034926;28;20425;-74
2022/12/20 08:27:07;;;;;;;63.03;27.83;;;-0.70;85.40;;;;;;5017766;28;20194;-74
2022/12/20 08:29:32;;;;;;;64.37;28.40;;;-0.60;84.80;;;;;;5032576;28;20195;-74
2022/12/20 08:31:58;;;;;;;67.30;29.87;;;-0.60;84.80;;;;;;5016602;28;20464;-73
2022/12/20 08:34:24;;;;;;;72.50;30.20;;;-0.70;84.80;;;;;;5015606;28;20198;-73
2022/12/20 08:36:49;;;;;;;59.97;26.40;;;-0.70;85.60;;;;;;5012988;28;20201;-74
2022/12/20 08:39:15;;;;;;;65.67;27.57;;;-0.70;85.20;;;;;;5006629;28;20213;-73
2022/12/20 08:41:41;;;;;;;61.80;28.57;;;-0.70;85.10;;;;;;5018616;28;20192;-73
2022/12/20 08:44:06;;;;;;;61.67;28.00;;;-0.70;85.80;;;;;;5017444;28;20250;-74
2022/12/20 08:46:33;;;;;;;66.37;27.60;;;-0.70;85.60;;;;;;5038038;28;20244;-73
2022/12/20 08:48:58;;;;;;;55.90;26.50;;;-0.70;85.60;;;;;;5034482;28;20240;-73
2022/12/20 08:51:24;;;;;;;69.10;27.63;;;-0.80;85.80;;;;;;5048312;28;20482;-73
2022/12/20 08:53:51;;;;;;;71.57;29.83;;;-0.80;85.70;;;;;;5034735;28;20726;-73
2022/12/20 08:56:17;;;;;;;66.43;27.47;;;-0.70;85.70;;;;;;5042235;28;20224;-74
2022/12/20 08:58:43;;;;;;;59.67;25.57;;;-0.70;85.20;;;;;;5031176;28;20482;-74
2022/12/20 09:01:12;;;;;;;61.87;26.43;;;-0.70;85.30;;;;;;5020139;28;20202;-74
2022/12/20 09:03:39;;;;;;;59.90;26.80;;;-0.70;85.20;;;;;;5051396;28;20446;-75
2022/12/20 09:06:13;;;;;;;69.43;26.10;;;-0.70;85.30;;;;;;5050268;28;20453;-74
2022/12/20 09:08:40;;;;;;;60.13;27.00;;;-0.70;85.50;;;;;;5041115;28;20424;-73
2022/12/20 09:11:12;;;;;;;64.00;26.63;;;-0.70;85.40;;;;;;5024575;28;20524;-74
2022/12/20 09:13:39;;;;;;;63.43;25.23;;;-0.70;85.60;;;;;;5049431;28;20424;-74
2022/12/20 09:16:06;;;;;;;54.93;26.63;;;-0.70;85.80;;;;;;5039794;28;20929;-74
2022/12/20 09:18:33;;;;;;;67.47;26.10;;;-0.70;85.60;;;;;;5017808;28;20621;-73
2022/12/20 09:21:03;;;;;;;62.97;25.73;;;-0.60;85.20;;;;;;5046939;28;20440;-74
2022/12/20 09:23:30;;;;;;;69.63;28.40;;;-0.60;85.70;;;;;;5033100;28;20438;-75
2022/12/20 09:26:02;;;;;;;68.00;27.63;;;-0.60;85.40;;;;;;5047594;28;20448;-75
2022/12/20 09:28:29;;;;;;;62.07;25.17;;;-0.60;85.50;;;;;;5042542;28;20440;-73
2022/12/20 09:30:59;;;;;;;67.63;27.90;;;-0.60;85.20;;;;;;5029021;28;20527;-74
2022/12/20 09:33:25;;;;;;;61.93;27.13;;;-0.50;84.60;;;;;;5046791;28;20429;-74
2022/12/20 09:35:51;;;;;;;63.00;25.87;;;-0.60;85.00;;;;;;5016128;28;20540;-73
2022/12/20 09:38:16;;;;;;;61.00;26.23;;;-0.50;85.60;;;;;;5013691;28;20567;-74
2022/12/20 09:40:51;;;;;;;69.63;28.43;;;-0.50;85.30;;;;;;5033095;28;20214;-74
2022/12/20 09:43:19;;;;;;;63.00;25.83;;;-0.60;85.40;;;;;;5045852;28;20275;-74
2022/12/20 09:45:47;;;;;;;58.43;26.80;;;-0.60;86.00;;;;;;5030660;28;20521;-73
2022/12/20 09:48:23;;;;;;;58.73;26.17;;;-0.50;85.70;;;;;;5049559;28;20444;-74
2022/12/20 09:51:09;;;;;;;59.93;27.00;;;-0.50;85.30;;;;;;5046937;28;20457;-74
2022/12/20 09:53:38;;;;;;;63.27;28.27;;;-0.60;85.00;;;;;;5052487;28;20432;-73
2022/12/20 09:56:25;;;;;;;62.07;25.10;;;-0.60;85.50;;;;;;5044424;28;20444;-68
2022/12/20 09:58:50;;;;;;;68.73;28.30;;;-0.60;85.50;;;;;;5045544;28;20487;-71
2022/12/20 10:01:20;;;;;;;57.80;25.30;;;-0.60;85.60;;;;;;5064159;28;20429;-71
2022/12/20 10:03:45;;;;;;;60.67;26.23;;;-0.50;85.10;;;;;;5037400;28;20189;-69
2022/12/20 10:06:20;;;;;;;55.43;24.70;;;-0.50;85.40;;;;;;5064263;28;21141;-72
2022/12/20 10:09:02;;;;;;;52.43;25.37;;;-0.50;85.40;;;;;;5038462;28;20720;-74
2022/12/20 10:11:39;;;;;;;68.03;27.77;;;-0.50;85.50;;;;;;5054523;28;20432;-72
2022/12/20 10:14:48;;;;;;;55.83;25.17;;;-0.50;85.10;;;;;;5050860;28;20530;-72
2022/12/20 10:17:37;;;;;;;62.93;25.67;;;-0.50;85.60;;;;;;5046872;28;21018;-72
2022/12/20 10:20:18;;;;;;;63.60;25.17;;;-0.60;85.70;;;;;;5060394;28;20490;-72
2022/12/20 10:23:02;;;;;;;71.63;28.10;;;-0.60;85.80;;;;;;5040311;28;20420;-72
2022/12/20 10:25:31;;;;;;;66.97;27.57;;;-0.60;85.50;;;;;;5050807;28;20444;-72
2022/12/20 10:27:59;;;;;;;68.57;26.73;;;-0.50;85.70;;;;;;5053062;28;20471;-72
2022/12/20 10:30:27;;;;;;;66.00;28.47;;;-0.60;86.10;;;;;;5049195;28;20471;-72
2022/12/20 10:32:55;;;;;;;68.23;27.17;;;-0.50;86.30;;;;;;5052599;28;20459;-72
2022/12/20 10:35:21;;;;;;;74.07;28.07;;;-0.50;86.10;;;;;;5041531;28;20434;-72
2022/12/20 10:37:58;;;;;;;63.13;27.13;;;-0.50;85.70;;;;;;5052826;28;20444;-72
2022/12/20 10:40:35;;;;;;;60.43;25.90;;;-0.60;86.20;;;;;;5043808;28;20204;-73
2022/12/20 10:43:02;;;;;;;59.10;24.53;;;-0.70;87.10;;;;;;5045590;28;20445;-78
2022/12/20 10:45:37;;;;;;;67.77;25.80;;;-0.60;86.50;;;;;;5079502;28;20495;-78
2022/12/20 10:48:25;;;;;;;65.70;25.73;;;-0.50;86.30;;;;;;5074826;28;20487;-71
2022/12/20 10:50:59;;;;;;;62.37;26.63;;;-0.50;86.40;;;;;;5053460;28;20541;-71
2022/12/20 10:53:26;;;;;;;59.73;26.37;;;-0.50;86.00;;;;;;5053221;28;20429;-71
2022/12/20 10:55:53;;;;;;;60.83;27.20;;;-0.50;86.60;;;;;;5076915;28;20454;-71
2022/12/20 10:58:30;;;;;;;69.83;28.10;;;-0.50;86.10;;;;;;5039777;28;20513;-74
2022/12/20 11:01:16;;;;;;;66.63;26.80;;;-0.50;85.90;;;;;;5033030;28;20469;-77
2022/12/20 11:03:55;;;;;;;65.67;26.90;;;-0.50;86.50;;;;;;5050059;28;20424;-71
2022/12/20 11:06:24;;;;;;;59.03;23.87;;;-0.50;86.10;;;;;;5051855;28;20455;-71
2022/12/20 11:08:50;;;;;;;59.20;25.03;;;-0.50;86.70;;;;;;5052680;28;20486;-80
2022/12/20 11:11:22;;;;;;;70.13;27.50;;;-0.40;86.10;;;;;;5021650;28;20440;-71
2022/12/20 11:13:49;;;;;;;67.07;26.13;;;-0.40;86.00;;;;;;5052732;28;20317;-71
2022/12/20 11:16:25;;;;;;;63.43;26.67;;;-0.40;86.50;;;;;;5050104;28;20784;-75
2022/12/20 11:19:28;;;;;;;60.43;25.90;;;-0.40;86.40;;;;;;5043233;28;20464;-73
2022/12/20 11:22:07;;;;;;;57.90;25.70;;;-0.40;86.20;;;;;;5059104;28;20457;-69
2022/12/20 11:24:44;;;;;;;67.50;27.73;;;-0.40;85.90;;;;;;5050438;28;20420;-67
2022/12/20 11:27:19;;;;;;;63.20;26.27;;;-0.50;85.70;;;;;;5048977;28;20448;-73
2022/12/20 11:30:03;;;;;;;60.83;24.77;;;-0.60;86.90;;;;;;5051391;28;20502;-73
2022/12/20 11:32:35;;;;;;;78.10;31.47;;;-0.50;86.60;;;;;;5052092;28;20435;-70
2022/12/20 11:35:42;;;;;;;57.47;23.60;;;-0.50;86.10;;;;;;5035681;28;20429;-65
2022/12/20 11:38:16;;;;;;;59.53;24.53;;;-0.50;86.80;;;;;;5025387;28;20436;-68
2022/12/20 11:40:53;;;;;;;70.67;28.67;;;-0.30;86.50;;;;;;5049281;28;21000;-76
2022/12/20 11:43:50;;;;;;;60.93;25.83;;;-0.30;85.90;;;;;;5050465;28;20421;-77
2022/12/20 11:46:25;;;;;;;71.13;26.63;;;-0.40;86.70;;;;;;5051707;28;20475;-72
2022/12/20 11:48:54;;;;;;;67.50;27.63;;;-0.40;86.70;;;;;;5040661;28;20472;-73
2022/12/20 11:51:24;;;;;;;63.23;26.17;;;-0.40;86.90;;;;;;5062004;28;20430;-72
2022/12/20 11:54:01;;;;;;;66.00;26.63;;;-0.40;86.00;;;;;;5051217;28;20441;-73
2022/12/20 11:56:37;;;;;;;62.27;26.40;;;-0.50;86.50;;;;;;5065992;28;20923;-69
2022/12/20 11:59:21;;;;;;;66.40;28.03;;;-0.40;86.60;;;;;;5040885;28;20474;-74
2022/12/20 12:01:56;;;;;;;67.30;27.40;;;-0.40;86.10;;;;;;5046699;28;20439;-76
2022/12/20 12:04:26;;;;;;;61.47;26.90;;;-0.40;86.50;;;;;;5042154;28;20448;-73
2022/12/20 12:07:43;;;;;;;69.87;27.00;;;-0.40;86.20;;;;;;5043242;28;20448;-69
2022/12/20 12:10:23;;;;;;;63.00;25.93;;;-0.40;86.50;;;;;;5033053;28;20480;-80
2022/12/20 12:13:01;;;;;;;65.93;24.97;;;-0.40;86.70;;;;;;5052432;28;20443;-75
2022/12/20 12:15:51;;;;;;;65.57;26.03;;;-0.40;86.80;;;;;;5050041;28;20511;-79
2022/12/20 12:18:24;;;;;;;58.30;26.97;;;-0.40;86.60;;;;;;5045087;28;20444;-77
2022/12/20 12:20:58;;;;;;;65.50;25.87;;;-0.40;87.00;;;;;;5050005;28;20541;-78
2022/12/20 12:23:46;;;;;;;64.77;26.17;;;-0.40;86.10;;;;;;5051274;28;20436;-76
2022/12/20 12:26:19;;;;;;;59.70;25.70;;;-0.40;86.40;;;;;;5049241;28;20464;-70
2022/12/20 12:29:00;;;;;;;67.67;25.30;;;-0.50;86.00;;;;;;5051686;28;20447;-70
2022/12/20 12:32:02;;;;;;;66.13;25.07;;;-0.60;87.10;;;;;;5059336;28;20559;-68
2022/12/20 12:34:46;;;;;;;69.60;25.83;;;-0.50;87.10;;;;;;5040580;28;20422;-67
2022/12/20 12:37:53;;;;;;;73.27;28.53;;;-0.40;86.90;;;;;;5066761;28;20417;-70
2022/12/20 12:40:48;;;;;;;75.43;30.03;;;-0.40;87.30;;;;;;5052012;28;20474;-68
2022/12/20 12:43:43;;;;;;;72.13;30.10;;;-0.60;86.40;;;;;;5047199;28;20458;-69
2022/12/20 12:46:31;;;;;;;68.60;27.70;;;-0.70;87.70;;;;;;5042776;28;20529;-67
2022/12/20 12:49:08;;;;;;;63.17;26.40;;;-0.60;87.60;;;;;;5048782;28;20432;-74
2022/12/20 12:51:37;;;;;;;61.03;26.47;;;-0.50;86.50;;;;;;5049467;28;20454;-72
2022/12/20 12:54:13;;;;;;;63.60;27.47;;;-0.50;87.50;;;;;;5041336;28;20483;-72